sensor_id;sensor_type;location;lat;lon;timestamp;P1;durP1;ratioP1;P2;durP2;ratioP2
4794;SDS011;2411;47.060;15.064;2023-07-30T00:02:25;1.70;;;0.90;;
4794;SDS011;2411;47.060;15.064;2023-07-30T00:04:52;0.80;;;0.70;;
4794;SDS011;2411;47.060;15.064;2023-07-30T00:07:19;1.60;;;0.80;;
4794;SDS011;2411;47.060;15.064;2023-07-30T00:09:47;2.27;;;0.80;;
4794;SDS011;2411;47.060;15.064;2023-07-30T00:12:14;1.57;;;1.13;;
4794;SDS011;2411;47.060;15.064;2023-07-30T00:14:41;0.83;;;0.70;;
4794;SDS011;2411;47.060;15.064;2023-07-30T00:17:09;0.60;;;0.60;;
4794;SDS011;2411;47.060;15.064;2023-07-30T00:19:36;2.83;;;0.67;;
4794;SDS011;2411;47.060;15.064;2023-07-30T00:22:03;0.80;;;0.80;;
4794;SDS011;2411;47.060;15.064;2023-07-30T00:24:31;1.10;;;0.60;;
4794;SDS011;2411;47.060;15.064;2023-07-30T00:26:58;1.47;;;0.70;;
4794;SDS011;2411;47.060;15.064;2023-07-30T00:29:26;3.07;;;0.70;;
4794;SDS011;2411;47.060;15.064;2023-07-30T00:31:53;1.90;;;0.70;;
4794;SDS011;2411;47.060;15.064;2023-07-30T00:34:20;0.70;;;0.70;;
4794;SDS011;2411;47.060;15.064;2023-07-30T00:36:47;2.70;;;0.70;;
4794;SDS011;2411;47.060;15.064;2023-07-30T00:39:15;0.60;;;0.60;;
4794;SDS011;2411;47.060;15.064;2023-07-30T00:41:42;0.70;;;0.70;;
4794;SDS011;2411;47.060;15.064;2023-07-30T00:44:09;1.63;;;0.70;;
4794;SDS011;2411;47.060;15.064;2023-07-30T00:46:36;1.33;;;1.20;;
4794;SDS011;2411;47.060;15.064;2023-07-30T00:49:04;0.70;;;0.70;;
4794;SDS011;2411;47.060;15.064;2023-07-30T00:51:31;0.80;;;0.80;;
4794;SDS011;2411;47.060;15.064;2023-07-30T00:54:00;0.70;;;0.70;;
4794;SDS011;2411;47.060;15.064;2023-07-30T00:56:28;6.63;;;0.93;;
4794;SDS011;2411;47.060;15.064;2023-07-30T00:58:56;3.27;;;1.10;;
4794;SDS011;2411;47.060;15.064;2023-07-30T01:01:24;3.63;;;1.20;;
4794;SDS011;2411;47.060;15.064;2023-07-30T01:03:51;1.57;;;1.47;;
4794;SDS011;2411;47.060;15.064;2023-07-30T01:06:19;1.20;;;1.10;;
4794;SDS011;2411;47.060;15.064;2023-07-30T01:08:47;4.50;;;1.57;;
4794;SDS011;2411;47.060;15.064;2023-07-30T01:11:15;1.10;;;1.10;;
4794;SDS011;2411;47.060;15.064;2023-07-30T01:13:43;1.07;;;0.70;;
4794;SDS011;2411;47.060;15.064;2023-07-30T01:16:14;0.83;;;0.83;;
4794;SDS011;2411;47.060;15.064;2023-07-30T01:18:41;1.20;;;0.80;;
4794;SDS011;2411;47.060;15.064;2023-07-30T01:21:08;5.60;;;0.87;;
4794;SDS011;2411;47.060;15.064;2023-07-30T01:23:36;3.20;;;1.03;;
4794;SDS011;2411;47.060;15.064;2023-07-30T01:26:18;0.70;;;0.70;;
4794;SDS011;2411;47.060;15.064;2023-07-30T01:28:51;0.60;;;0.60;;
4794;SDS011;2411;47.060;15.064;2023-07-30T01:31:23;6.90;;;0.80;;
4794;SDS011;2411;47.060;15.064;2023-07-30T01:33:54;1.73;;;0.80;;
4794;SDS011;2411;47.060;15.064;2023-07-30T01:36:22;0.83;;;0.70;;
4794;SDS011;2411;47.060;15.064;2023-07-30T01:38:51;0.70;;;0.70;;
4794;SDS011;2411;47.060;15.064;2023-07-30T01:41:19;0.87;;;0.87;;
4794;SDS011;2411;47.060;15.064;2023-07-30T01:43:47;0.80;;;0.80;;
4794;SDS011;2411;47.060;15.064;2023-07-30T01:46:15;1.10;;;0.90;;
4794;SDS011;2411;47.060;15.064;2023-07-30T01:48:42;0.87;;;0.87;;
4794;SDS011;2411;47.060;15.064;2023-07-30T01:51:09;0.80;;;0.80;;
4794;SDS011;2411;47.060;15.064;2023-07-30T01:53:36;0.70;;;0.70;;
4794;SDS011;2411;47.060;15.064;2023-07-30T01:56:04;1.00;;;1.00;;
4794;SDS011;2411;47.060;15.064;2023-07-30T01:58:31;6.17;;;1.27;;
4794;SDS011;2411;47.060;15.064;2023-07-30T02:00:58;1.47;;;1.40;;
4794;SDS011;2411;47.060;15.064;2023-07-30T02:03:26;4.33;;;0.97;;
4794;SDS011;2411;47.060;15.064;2023-07-30T02:05:54;2.40;;;1.10;;
4794;SDS011;2411;47.060;15.064;2023-07-30T02:08:22;3.33;;;0.90;;
4794;SDS011;2411;47.060;15.064;2023-07-30T02:10:56;2.20;;;0.90;;
4794;SDS011;2411;47.060;15.064;2023-07-30T02:13:24;2.90;;;1.13;;
4794;SDS011;2411;47.060;15.064;2023-07-30T02:15:52;1.03;;;1.03;;
4794;SDS011;2411;47.060;15.064;2023-07-30T02:18:19;1.93;;;1.03;;
4794;SDS011;2411;47.060;15.064;2023-07-30T02:20:46;1.93;;;1.13;;
4794;SDS011;2411;47.060;15.064;2023-07-30T02:23:14;3.73;;;1.73;;
4794;SDS011;2411;47.060;15.064;2023-07-30T02:25:44;4.10;;;1.57;;
4794;SDS011;2411;47.060;15.064;2023-07-30T02:28:12;0.93;;;0.93;;
4794;SDS011;2411;47.060;15.064;2023-07-30T02:30:41;1.30;;;1.20;;
4794;SDS011;2411;47.060;15.064;2023-07-30T02:33:08;1.23;;;1.13;;
4794;SDS011;2411;47.060;15.064;2023-07-30T02:35:35;4.23;;;1.30;;
4794;SDS011;2411;47.060;15.064;2023-07-30T02:38:02;6.00;;;1.20;;
4794;SDS011;2411;47.060;15.064;2023-07-30T02:40:30;1.50;;;1.40;;
4794;SDS011;2411;47.060;15.064;2023-07-30T02:42:58;2.50;;;1.00;;
4794;SDS011;2411;47.060;15.064;2023-07-30T02:45:25;1.03;;;1.03;;
4794;SDS011;2411;47.060;15.064;2023-07-30T02:47:52;2.30;;;1.30;;
4794;SDS011;2411;47.060;15.064;2023-07-30T02:50:20;4.50;;;1.40;;
4794;SDS011;2411;47.060;15.064;2023-07-30T02:52:47;2.40;;;1.10;;
4794;SDS011;2411;47.060;15.064;2023-07-30T02:55:15;1.47;;;1.10;;
4794;SDS011;2411;47.060;15.064;2023-07-30T02:57:42;3.97;;;1.30;;
4794;SDS011;2411;47.060;15.064;2023-07-30T03:00:10;2.27;;;0.80;;
4794;SDS011;2411;47.060;15.064;2023-07-30T03:02:37;1.20;;;1.10;;
4794;SDS011;2411;47.060;15.064;2023-07-30T03:05:05;5.73;;;1.20;;
4794;SDS011;2411;47.060;15.064;2023-07-30T03:07:32;4.70;;;1.57;;
4794;SDS011;2411;47.060;15.064;2023-07-30T03:10:00;2.73;;;1.10;;
4794;SDS011;2411;47.060;15.064;2023-07-30T03:12:27;2.87;;;1.20;;
4794;SDS011;2411;47.060;15.064;2023-07-30T03:14:54;4.90;;;1.50;;
4794;SDS011;2411;47.060;15.064;2023-07-30T03:17:22;1.37;;;1.27;;
4794;SDS011;2411;47.060;15.064;2023-07-30T03:19:49;1.50;;;1.17;;
4794;SDS011;2411;47.060;15.064;2023-07-30T03:22:16;8.33;;;1.10;;
4794;SDS011;2411;47.060;15.064;2023-07-30T03:24:45;1.70;;;1.07;;
4794;SDS011;2411;47.060;15.064;2023-07-30T03:27:14;4.77;;;1.40;;
4794;SDS011;2411;47.060;15.064;2023-07-30T03:29:41;5.97;;;1.37;;
4794;SDS011;2411;47.060;15.064;2023-07-30T03:32:08;6.13;;;1.40;;
4794;SDS011;2411;47.060;15.064;2023-07-30T03:34:36;4.63;;;1.27;;
4794;SDS011;2411;47.060;15.064;2023-07-30T03:37:03;2.10;;;1.30;;
4794;SDS011;2411;47.060;15.064;2023-07-30T03:39:30;2.57;;;1.50;;
4794;SDS011;2411;47.060;15.064;2023-07-30T03:41:57;1.30;;;1.20;;
4794;SDS011;2411;47.060;15.064;2023-07-30T03:44:25;2.83;;;1.40;;
4794;SDS011;2411;47.060;15.064;2023-07-30T03:46:52;2.83;;;1.40;;
4794;SDS011;2411;47.060;15.064;2023-07-30T03:49:19;1.50;;;1.40;;
4794;SDS011;2411;47.060;15.064;2023-07-30T03:51:47;4.20;;;1.60;;
4794;SDS011;2411;47.060;15.064;2023-07-30T03:54:14;1.10;;;1.10;;
4794;SDS011;2411;47.060;15.064;2023-07-30T03:56:41;3.77;;;1.40;;
4794;SDS011;2411;47.060;15.064;2023-07-30T03:59:08;2.27;;;1.60;;
4794;SDS011;2411;47.060;15.064;2023-07-30T04:01:35;1.30;;;1.20;;
4794;SDS011;2411;47.060;15.064;2023-07-30T04:04:03;1.90;;;1.80;;
4794;SDS011;2411;47.060;15.064;2023-07-30T04:06:31;3.13;;;1.30;;
4794;SDS011;2411;47.060;15.064;2023-07-30T04:08:58;1.27;;;1.27;;
4794;SDS011;2411;47.060;15.064;2023-07-30T04:11:25;1.40;;;1.30;;
4794;SDS011;2411;47.060;15.064;2023-07-30T04:13:52;2.07;;;1.50;;
4794;SDS011;2411;47.060;15.064;2023-07-30T04:16:19;2.50;;;1.30;;
4794;SDS011;2411;47.060;15.064;2023-07-30T04:18:47;5.60;;;1.70;;
4794;SDS011;2411;47.060;15.064;2023-07-30T04:21:14;3.17;;;1.93;;
4794;SDS011;2411;47.060;15.064;2023-07-30T04:23:42;1.23;;;1.13;;
4794;SDS011;2411;47.060;15.064;2023-07-30T04:26:09;1.60;;;1.50;;
4794;SDS011;2411;47.060;15.064;2023-07-30T04:28:36;1.33;;;1.20;;
4794;SDS011;2411;47.060;15.064;2023-07-30T04:31:04;1.37;;;1.27;;
4794;SDS011;2411;47.060;15.064;2023-07-30T04:33:31;4.00;;;1.83;;
4794;SDS011;2411;47.060;15.064;2023-07-30T04:35:58;2.13;;;1.57;;
4794;SDS011;2411;47.060;15.064;2023-07-30T04:38:26;2.07;;;1.87;;
4794;SDS011;2411;47.060;15.064;2023-07-30T04:40:53;2.40;;;1.73;;
4794;SDS011;2411;47.060;15.064;2023-07-30T04:43:20;1.63;;;1.57;;
4794;SDS011;2411;47.060;15.064;2023-07-30T04:45:47;5.70;;;1.30;;
4794;SDS011;2411;47.060;15.064;2023-07-30T04:48:15;1.33;;;1.20;;
4794;SDS011;2411;47.060;15.064;2023-07-30T04:50:42;2.03;;;1.17;;
4794;SDS011;2411;47.060;15.064;2023-07-30T04:53:09;2.40;;;1.33;;
4794;SDS011;2411;47.060;15.064;2023-07-30T04:55:36;1.93;;;1.20;;
4794;SDS011;2411;47.060;15.064;2023-07-30T04:58:04;1.53;;;1.43;;
4794;SDS011;2411;47.060;15.064;2023-07-30T05:00:31;11.87;;;1.37;;
4794;SDS011;2411;47.060;15.064;2023-07-30T05:02:58;1.70;;;1.60;;
4794;SDS011;2411;47.060;15.064;2023-07-30T05:05:26;4.03;;;1.47;;
4794;SDS011;2411;47.060;15.064;2023-07-30T05:07:53;1.10;;;1.00;;
4794;SDS011;2411;47.060;15.064;2023-07-30T05:10:20;1.77;;;1.00;;
4794;SDS011;2411;47.060;15.064;2023-07-30T05:12:48;1.33;;;1.30;;
4794;SDS011;2411;47.060;15.064;2023-07-30T05:15:15;1.50;;;1.40;;
4794;SDS011;2411;47.060;15.064;2023-07-30T05:17:43;1.60;;;1.50;;
4794;SDS011;2411;47.060;15.064;2023-07-30T05:20:10;15.33;;;1.90;;
4794;SDS011;2411;47.060;15.064;2023-07-30T05:22:37;10.67;;;2.07;;
4794;SDS011;2411;47.060;15.064;2023-07-30T05:25:05;4.50;;;1.60;;
4794;SDS011;2411;47.060;15.064;2023-07-30T05:27:32;4.63;;;1.63;;
4794;SDS011;2411;47.060;15.064;2023-07-30T05:30:00;2.23;;;1.60;;
4794;SDS011;2411;47.060;15.064;2023-07-30T05:32:27;2.63;;;2.10;;
4794;SDS011;2411;47.060;15.064;2023-07-30T05:34:54;2.33;;;2.20;;
4794;SDS011;2411;47.060;15.064;2023-07-30T05:37:24;2.70;;;1.70;;
4794;SDS011;2411;47.060;15.064;2023-07-30T05:39:51;1.83;;;1.40;;
4794;SDS011;2411;47.060;15.064;2023-07-30T05:42:19;1.40;;;1.30;;
4794;SDS011;2411;47.060;15.064;2023-07-30T05:44:46;1.20;;;1.10;;
4794;SDS011;2411;47.060;15.064;2023-07-30T05:47:13;3.53;;;1.53;;
4794;SDS011;2411;47.060;15.064;2023-07-30T05:49:41;1.63;;;1.53;;
4794;SDS011;2411;47.060;15.064;2023-07-30T05:52:08;2.37;;;1.57;;
4794;SDS011;2411;47.060;15.064;2023-07-30T05:54:35;1.83;;;1.73;;
4794;SDS011;2411;47.060;15.064;2023-07-30T05:57:02;2.60;;;1.43;;
4794;SDS011;2411;47.060;15.064;2023-07-30T05:59:30;2.03;;;1.93;;
4794;SDS011;2411;47.060;15.064;2023-07-30T06:02:01;5.50;;;1.60;;
4794;SDS011;2411;47.060;15.064;2023-07-30T06:04:29;4.23;;;2.23;;
4794;SDS011;2411;47.060;15.064;2023-07-30T06:07:01;2.10;;;2.00;;
4794;SDS011;2411;47.060;15.064;2023-07-30T06:09:29;2.30;;;2.20;;
4794;SDS011;2411;47.060;15.064;2023-07-30T06:11:57;3.80;;;2.60;;
4794;SDS011;2411;47.060;15.064;2023-07-30T06:14:25;2.30;;;2.17;;
4794;SDS011;2411;47.060;15.064;2023-07-30T06:16:53;6.43;;;2.00;;
4794;SDS011;2411;47.060;15.064;2023-07-30T06:19:21;3.27;;;1.53;;
4794;SDS011;2411;47.060;15.064;2023-07-30T06:21:48;3.80;;;1.40;;
4794;SDS011;2411;47.060;15.064;2023-07-30T06:24:15;1.63;;;1.53;;
4794;SDS011;2411;47.060;15.064;2023-07-30T06:26:42;1.80;;;1.50;;
4794;SDS011;2411;47.060;15.064;2023-07-30T06:29:10;4.83;;;1.70;;
4794;SDS011;2411;47.060;15.064;2023-07-30T06:31:37;1.90;;;1.80;;
4794;SDS011;2411;47.060;15.064;2023-07-30T06:34:05;1.90;;;1.50;;
4794;SDS011;2411;47.060;15.064;2023-07-30T06:36:32;1.43;;;1.33;;
4794;SDS011;2411;47.060;15.064;2023-07-30T06:39:00;2.03;;;1.93;;
4794;SDS011;2411;47.060;15.064;2023-07-30T06:41:27;1.47;;;1.27;;
4794;SDS011;2411;47.060;15.064;2023-07-30T06:43:55;5.57;;;1.60;;
4794;SDS011;2411;47.060;15.064;2023-07-30T06:46:22;1.83;;;1.10;;
4794;SDS011;2411;47.060;15.064;2023-07-30T06:48:49;2.13;;;1.40;;
4794;SDS011;2411;47.060;15.064;2023-07-30T06:51:21;1.30;;;1.30;;
4794;SDS011;2411;47.060;15.064;2023-07-30T06:53:51;1.50;;;1.40;;
4794;SDS011;2411;47.060;15.064;2023-07-30T06:56:18;1.50;;;1.37;;
4794;SDS011;2411;47.060;15.064;2023-07-30T06:58:46;1.20;;;1.20;;
4794;SDS011;2411;47.060;15.064;2023-07-30T07:01:13;1.80;;;1.00;;
4794;SDS011;2411;47.060;15.064;2023-07-30T07:03:41;1.43;;;1.33;;
4794;SDS011;2411;47.060;15.064;2023-07-30T07:06:08;1.07;;;1.07;;
4794;SDS011;2411;47.060;15.064;2023-07-30T07:08:35;1.30;;;1.20;;
4794;SDS011;2411;47.060;15.064;2023-07-30T07:11:04;3.00;;;1.40;;
4794;SDS011;2411;47.060;15.064;2023-07-30T07:13:31;1.63;;;1.20;;
4794;SDS011;2411;47.060;15.064;2023-07-30T07:15:58;1.40;;;1.30;;
4794;SDS011;2411;47.060;15.064;2023-07-30T07:18:26;1.77;;;1.40;;
4794;SDS011;2411;47.060;15.064;2023-07-30T07:20:53;3.07;;;1.10;;
4794;SDS011;2411;47.060;15.064;2023-07-30T07:23:20;0.90;;;0.90;;
4794;SDS011;2411;47.060;15.064;2023-07-30T07:25:48;1.20;;;1.10;;
4794;SDS011;2411;47.060;15.064;2023-07-30T07:28:15;1.50;;;1.40;;
4794;SDS011;2411;47.060;15.064;2023-07-30T07:30:43;1.37;;;1.27;;
4794;SDS011;2411;47.060;15.064;2023-07-30T07:33:11;1.43;;;1.20;;
4794;SDS011;2411;47.060;15.064;2023-07-30T07:35:39;1.93;;;1.83;;
4794;SDS011;2411;47.060;15.064;2023-07-30T07:38:07;3.60;;;1.97;;
4794;SDS011;2411;47.060;15.064;2023-07-30T07:40:37;1.77;;;1.60;;
4794;SDS011;2411;47.060;15.064;2023-07-30T07:43:08;2.30;;;1.67;;
4794;SDS011;2411;47.060;15.064;2023-07-30T07:45:35;2.30;;;2.10;;
4794;SDS011;2411;47.060;15.064;2023-07-30T07:48:03;3.23;;;1.57;;
4794;SDS011;2411;47.060;15.064;2023-07-30T07:50:30;4.13;;;2.03;;
4794;SDS011;2411;47.060;15.064;2023-07-30T07:52:57;1.80;;;1.50;;
4794;SDS011;2411;47.060;15.064;2023-07-30T07:55:25;1.83;;;1.40;;
4794;SDS011;2411;47.060;15.064;2023-07-30T07:57:52;1.70;;;1.60;;
4794;SDS011;2411;47.060;15.064;2023-07-30T08:00:19;1.43;;;1.33;;
4794;SDS011;2411;47.060;15.064;2023-07-30T08:02:47;1.80;;;1.30;;
4794;SDS011;2411;47.060;15.064;2023-07-30T08:05:17;1.93;;;1.63;;
4794;SDS011;2411;47.060;15.064;2023-07-30T08:07:46;2.57;;;1.40;;
4794;SDS011;2411;47.060;15.064;2023-07-30T08:10:14;1.57;;;1.37;;
4794;SDS011;2411;47.060;15.064;2023-07-30T08:12:41;4.70;;;1.77;;
4794;SDS011;2411;47.060;15.064;2023-07-30T08:15:10;3.83;;;1.90;;
4794;SDS011;2411;47.060;15.064;2023-07-30T08:17:37;2.60;;;1.47;;
4794;SDS011;2411;47.060;15.064;2023-07-30T08:20:05;1.47;;;1.37;;
4794;SDS011;2411;47.060;15.064;2023-07-30T08:22:32;2.07;;;1.57;;
4794;SDS011;2411;47.060;15.064;2023-07-30T08:25:00;2.87;;;1.60;;
4794;SDS011;2411;47.060;15.064;2023-07-30T08:27:28;1.50;;;1.40;;
4794;SDS011;2411;47.060;15.064;2023-07-30T08:29:55;1.53;;;1.33;;
4794;SDS011;2411;47.060;15.064;2023-07-30T08:32:22;1.83;;;1.70;;
4794;SDS011;2411;47.060;15.064;2023-07-30T08:34:50;2.93;;;1.60;;
4794;SDS011;2411;47.060;15.064;2023-07-30T08:37:17;1.50;;;1.30;;
4794;SDS011;2411;47.060;15.064;2023-07-30T08:39:44;3.20;;;1.60;;
4794;SDS011;2411;47.060;15.064;2023-07-30T08:42:18;1.27;;;1.27;;
4794;SDS011;2411;47.060;15.064;2023-07-30T08:44:45;1.63;;;1.53;;
4794;SDS011;2411;47.060;15.064;2023-07-30T08:47:13;1.60;;;1.50;;
4794;SDS011;2411;47.060;15.064;2023-07-30T08:49:41;1.17;;;1.17;;
4794;SDS011;2411;47.060;15.064;2023-07-30T08:52:09;1.37;;;1.27;;
4794;SDS011;2411;47.060;15.064;2023-07-30T08:54:38;1.60;;;1.50;;
4794;SDS011;2411;47.060;15.064;2023-07-30T08:57:06;1.87;;;1.30;;
4794;SDS011;2411;47.060;15.064;2023-07-30T08:59:37;3.67;;;1.27;;
4794;SDS011;2411;47.060;15.064;2023-07-30T09:02:09;3.00;;;1.33;;
4794;SDS011;2411;47.060;15.064;2023-07-30T09:04:44;1.13;;;1.10;;
4794;SDS011;2411;47.060;15.064;2023-07-30T09:07:16;1.57;;;1.17;;
4794;SDS011;2411;47.060;15.064;2023-07-30T09:09:43;1.70;;;1.10;;
4794;SDS011;2411;47.060;15.064;2023-07-30T09:12:13;2.20;;;1.27;;
4794;SDS011;2411;47.060;15.064;2023-07-30T09:14:41;1.67;;;1.13;;
4794;SDS011;2411;47.060;15.064;2023-07-30T09:17:18;2.00;;;1.10;;
4794;SDS011;2411;47.060;15.064;2023-07-30T09:19:46;1.20;;;1.20;;
4794;SDS011;2411;47.060;15.064;2023-07-30T09:22:19;5.50;;;1.30;;
4794;SDS011;2411;47.060;15.064;2023-07-30T09:24:57;1.47;;;1.03;;
4794;SDS011;2411;47.060;15.064;2023-07-30T09:27:25;1.50;;;1.40;;
4794;SDS011;2411;47.060;15.064;2023-07-30T09:29:53;1.50;;;1.40;;
4794;SDS011;2411;47.060;15.064;2023-07-30T09:32:29;1.63;;;1.53;;
4794;SDS011;2411;47.060;15.064;2023-07-30T09:35:05;1.77;;;1.53;;
4794;SDS011;2411;47.060;15.064;2023-07-30T09:37:37;1.30;;;1.30;;
4794;SDS011;2411;47.060;15.064;2023-07-30T09:40:07;1.50;;;1.40;;
4794;SDS011;2411;47.060;15.064;2023-07-30T09:42:43;2.70;;;1.60;;
4794;SDS011;2411;47.060;15.064;2023-07-30T09:45:21;1.53;;;1.43;;
4794;SDS011;2411;47.060;15.064;2023-07-30T09:47:51;4.73;;;1.60;;
4794;SDS011;2411;47.060;15.064;2023-07-30T09:50:19;2.50;;;1.00;;
4794;SDS011;2411;47.060;15.064;2023-07-30T09:52:47;3.13;;;1.00;;
4794;SDS011;2411;47.060;15.064;2023-07-30T09:55:16;0.90;;;0.90;;
4794;SDS011;2411;47.060;15.064;2023-07-30T09:57:45;1.10;;;1.00;;
4794;SDS011;2411;47.060;15.064;2023-07-30T10:00:13;1.13;;;1.03;;
4794;SDS011;2411;47.060;15.064;2023-07-30T10:02:41;2.30;;;1.10;;
4794;SDS011;2411;47.060;15.064;2023-07-30T10:05:20;1.13;;;1.13;;
4794;SDS011;2411;47.060;15.064;2023-07-30T10:07:53;2.80;;;0.90;;
4794;SDS011;2411;47.060;15.064;2023-07-30T10:10:26;0.80;;;0.80;;
4794;SDS011;2411;47.060;15.064;2023-07-30T10:12:57;0.90;;;0.90;;
4794;SDS011;2411;47.060;15.064;2023-07-30T10:15:30;0.97;;;0.97;;
4794;SDS011;2411;47.060;15.064;2023-07-30T10:18:10;0.97;;;0.93;;
4794;SDS011;2411;47.060;15.064;2023-07-30T10:20:37;1.07;;;1.03;;
4794;SDS011;2411;47.060;15.064;2023-07-30T10:23:05;2.50;;;1.30;;
4794;SDS011;2411;47.060;15.064;2023-07-30T10:25:48;1.73;;;1.60;;
4794;SDS011;2411;47.060;15.064;2023-07-30T10:31:13;1.00;;;0.90;;
4794;SDS011;2411;47.060;15.064;2023-07-30T10:36:32;1.17;;;1.07;;
4794;SDS011;2411;47.060;15.064;2023-07-30T10:39:10;1.73;;;1.37;;
4794;SDS011;2411;47.060;15.064;2023-07-30T10:41:38;1.03;;;0.93;;
4794;SDS011;2411;47.060;15.064;2023-07-30T10:46:51;2.03;;;1.10;;
4794;SDS011;2411;47.060;15.064;2023-07-30T10:49:22;1.47;;;1.20;;
4794;SDS011;2411;47.060;15.064;2023-07-30T10:51:54;1.33;;;1.07;;
4794;SDS011;2411;47.060;15.064;2023-07-30T10:54:22;1.90;;;1.00;;
4794;SDS011;2411;47.060;15.064;2023-07-30T10:56:50;1.23;;;0.80;;
4794;SDS011;2411;47.060;15.064;2023-07-30T10:59:18;1.00;;;1.00;;
4794;SDS011;2411;47.060;15.064;2023-07-30T11:01:46;4.07;;;0.90;;
4794;SDS011;2411;47.060;15.064;2023-07-30T11:04:20;1.10;;;1.00;;
4794;SDS011;2411;47.060;15.064;2023-07-30T11:06:48;1.73;;;1.10;;
4794;SDS011;2411;47.060;15.064;2023-07-30T11:09:20;1.73;;;1.00;;
4794;SDS011;2411;47.060;15.064;2023-07-30T11:11:49;0.93;;;0.93;;
4794;SDS011;2411;47.060;15.064;2023-07-30T11:16:56;1.20;;;1.10;;
4794;SDS011;2411;47.060;15.064;2023-07-30T11:19:28;1.30;;;1.20;;
4794;SDS011;2411;47.060;15.064;2023-07-30T11:21:56;0.93;;;0.83;;
4794;SDS011;2411;47.060;15.064;2023-07-30T11:24:34;0.80;;;0.80;;
4794;SDS011;2411;47.060;15.064;2023-07-30T11:27:02;2.30;;;1.17;;
4794;SDS011;2411;47.060;15.064;2023-07-30T11:29:29;0.90;;;0.90;;
4794;SDS011;2411;47.060;15.064;2023-07-30T11:31:58;1.00;;;1.00;;
4794;SDS011;2411;47.060;15.064;2023-07-30T11:34:26;0.83;;;0.83;;
4794;SDS011;2411;47.060;15.064;2023-07-30T11:36:54;1.00;;;0.90;;
4794;SDS011;2411;47.060;15.064;2023-07-30T11:39:23;2.83;;;1.13;;
4794;SDS011;2411;47.060;15.064;2023-07-30T11:41:51;1.07;;;0.70;;
4794;SDS011;2411;47.060;15.064;2023-07-30T11:47:02;1.43;;;1.13;;
4794;SDS011;2411;47.060;15.064;2023-07-30T11:49:30;1.27;;;1.17;;
4794;SDS011;2411;47.060;15.064;2023-07-30T11:52:08;1.43;;;1.00;;
4794;SDS011;2411;47.060;15.064;2023-07-30T11:54:36;0.93;;;0.90;;
4794;SDS011;2411;47.060;15.064;2023-07-30T11:57:04;1.30;;;1.20;;
4794;SDS011;2411;47.060;15.064;2023-07-30T11:59:32;1.27;;;0.90;;
4794;SDS011;2411;47.060;15.064;2023-07-30T12:01:59;1.53;;;1.10;;
4794;SDS011;2411;47.060;15.064;2023-07-30T12:04:42;1.83;;;0.90;;
4794;SDS011;2411;47.060;15.064;2023-07-30T12:07:10;0.80;;;0.80;;
4794;SDS011;2411;47.060;15.064;2023-07-30T12:09:38;1.13;;;0.77;;
4794;SDS011;2411;47.060;15.064;2023-07-30T12:12:05;1.17;;;1.10;;
4794;SDS011;2411;47.060;15.064;2023-07-30T12:17:15;1.00;;;1.00;;
4794;SDS011;2411;47.060;15.064;2023-07-30T12:19:42;0.90;;;0.90;;
4794;SDS011;2411;47.060;15.064;2023-07-30T12:22:10;1.97;;;0.93;;
4794;SDS011;2411;47.060;15.064;2023-07-30T12:24:38;1.57;;;1.00;;
4794;SDS011;2411;47.060;15.064;2023-07-30T12:27:05;0.90;;;0.90;;
4794;SDS011;2411;47.060;15.064;2023-07-30T12:29:33;1.00;;;0.90;;
4794;SDS011;2411;47.060;15.064;2023-07-30T12:32:01;0.80;;;0.80;;
4794;SDS011;2411;47.060;15.064;2023-07-30T12:34:30;0.97;;;0.87;;
4794;SDS011;2411;47.060;15.064;2023-07-30T12:36:57;1.10;;;1.00;;
4794;SDS011;2411;47.060;15.064;2023-07-30T12:39:26;0.73;;;0.73;;
4794;SDS011;2411;47.060;15.064;2023-07-30T12:41:54;0.90;;;0.90;;
4794;SDS011;2411;47.060;15.064;2023-07-30T12:44:21;1.17;;;0.87;;
4794;SDS011;2411;47.060;15.064;2023-07-30T12:46:48;1.00;;;1.00;;
4794;SDS011;2411;47.060;15.064;2023-07-30T12:49:15;0.90;;;0.90;;
4794;SDS011;2411;47.060;15.064;2023-07-30T12:51:43;1.10;;;1.00;;
4794;SDS011;2411;47.060;15.064;2023-07-30T12:54:10;2.50;;;1.00;;
4794;SDS011;2411;47.060;15.064;2023-07-30T12:56:37;1.37;;;0.87;;
4794;SDS011;2411;47.060;15.064;2023-07-30T12:59:05;1.47;;;0.97;;
4794;SDS011;2411;47.060;15.064;2023-07-30T13:01:32;0.77;;;0.77;;
4794;SDS011;2411;47.060;15.064;2023-07-30T13:03:59;1.03;;;1.03;;
4794;SDS011;2411;47.060;15.064;2023-07-30T13:06:27;1.00;;;1.00;;
4794;SDS011;2411;47.060;15.064;2023-07-30T13:08:54;1.20;;;1.10;;
4794;SDS011;2411;47.060;15.064;2023-07-30T13:11:24;1.00;;;1.00;;
4794;SDS011;2411;47.060;15.064;2023-07-30T13:13:51;3.63;;;1.20;;
4794;SDS011;2411;47.060;15.064;2023-07-30T13:16:18;1.53;;;1.00;;
4794;SDS011;2411;47.060;15.064;2023-07-30T13:18:46;1.63;;;1.00;;
4794;SDS011;2411;47.060;15.064;2023-07-30T13:21:13;2.00;;;0.90;;
4794;SDS011;2411;47.060;15.064;2023-07-30T13:23:40;1.00;;;1.00;;
4794;SDS011;2411;47.060;15.064;2023-07-30T13:26:07;0.90;;;0.90;;
4794;SDS011;2411;47.060;15.064;2023-07-30T13:28:35;0.93;;;0.93;;
4794;SDS011;2411;47.060;15.064;2023-07-30T13:31:02;1.10;;;1.10;;
4794;SDS011;2411;47.060;15.064;2023-07-30T13:33:29;0.80;;;0.80;;
4794;SDS011;2411;47.060;15.064;2023-07-30T13:35:57;0.80;;;0.80;;
4794;SDS011;2411;47.060;15.064;2023-07-30T13:38:24;1.60;;;1.07;;
4794;SDS011;2411;47.060;15.064;2023-07-30T13:40:53;1.13;;;1.03;;
4794;SDS011;2411;47.060;15.064;2023-07-30T13:43:21;2.97;;;1.17;;
4794;SDS011;2411;47.060;15.064;2023-07-30T13:45:48;1.63;;;1.17;;
4794;SDS011;2411;47.060;15.064;2023-07-30T13:48:16;0.90;;;0.90;;
4794;SDS011;2411;47.060;15.064;2023-07-30T13:50:44;0.90;;;0.90;;
4794;SDS011;2411;47.060;15.064;2023-07-30T13:53:11;1.13;;;1.00;;
4794;SDS011;2411;47.060;15.064;2023-07-30T13:55:39;0.77;;;0.77;;
4794;SDS011;2411;47.060;15.064;2023-07-30T13:58:06;1.00;;;1.00;;
4794;SDS011;2411;47.060;15.064;2023-07-30T14:00:35;1.00;;;1.00;;
4794;SDS011;2411;47.060;15.064;2023-07-30T14:03:02;0.97;;;0.97;;
4794;SDS011;2411;47.060;15.064;2023-07-30T14:05:30;0.87;;;0.87;;
4794;SDS011;2411;47.060;15.064;2023-07-30T14:07:57;1.13;;;1.03;;
4794;SDS011;2411;47.060;15.064;2023-07-30T14:10:24;1.40;;;0.90;;
4794;SDS011;2411;47.060;15.064;2023-07-30T14:12:52;1.20;;;1.10;;
4794;SDS011;2411;47.060;15.064;2023-07-30T14:15:19;1.33;;;1.10;;
4794;SDS011;2411;47.060;15.064;2023-07-30T14:17:47;0.97;;;0.97;;
4794;SDS011;2411;47.060;15.064;2023-07-30T14:20:14;1.00;;;1.00;;
4794;SDS011;2411;47.060;15.064;2023-07-30T14:22:42;0.83;;;0.83;;
4794;SDS011;2411;47.060;15.064;2023-07-30T14:25:09;1.43;;;1.33;;
4794;SDS011;2411;47.060;15.064;2023-07-30T14:27:36;1.03;;;1.00;;
4794;SDS011;2411;47.060;15.064;2023-07-30T14:30:03;8.53;;;1.47;;
4794;SDS011;2411;47.060;15.064;2023-07-30T14:32:31;1.23;;;1.17;;
4794;SDS011;2411;47.060;15.064;2023-07-30T14:34:58;1.40;;;0.93;;
4794;SDS011;2411;47.060;15.064;2023-07-30T14:37:26;1.10;;;1.10;;
4794;SDS011;2411;47.060;15.064;2023-07-30T14:39:53;2.20;;;1.33;;
4794;SDS011;2411;47.060;15.064;2023-07-30T14:42:20;1.43;;;1.20;;
4794;SDS011;2411;47.060;15.064;2023-07-30T14:44:47;1.70;;;1.20;;
4794;SDS011;2411;47.060;15.064;2023-07-30T14:47:15;2.57;;;1.13;;
4794;SDS011;2411;47.060;15.064;2023-07-30T14:49:42;3.13;;;1.60;;
4794;SDS011;2411;47.060;15.064;2023-07-30T14:52:09;1.60;;;1.50;;
4794;SDS011;2411;47.060;15.064;2023-07-30T14:54:37;1.87;;;1.20;;
4794;SDS011;2411;47.060;15.064;2023-07-30T14:57:04;1.90;;;1.80;;
4794;SDS011;2411;47.060;15.064;2023-07-30T14:59:32;2.70;;;1.63;;
4794;SDS011;2411;47.060;15.064;2023-07-30T15:01:59;2.20;;;1.50;;
4794;SDS011;2411;47.060;15.064;2023-07-30T15:04:27;1.57;;;1.20;;
4794;SDS011;2411;47.060;15.064;2023-07-30T15:06:56;1.77;;;1.57;;
4794;SDS011;2411;47.060;15.064;2023-07-30T15:09:24;1.10;;;1.00;;
4794;SDS011;2411;47.060;15.064;2023-07-30T15:11:51;3.90;;;1.60;;
4794;SDS011;2411;47.060;15.064;2023-07-30T15:14:19;1.70;;;1.60;;
4794;SDS011;2411;47.060;15.064;2023-07-30T15:16:46;1.67;;;1.57;;
4794;SDS011;2411;47.060;15.064;2023-07-30T15:19:13;1.63;;;1.40;;
4794;SDS011;2411;47.060;15.064;2023-07-30T15:21:41;1.67;;;1.57;;
4794;SDS011;2411;47.060;15.064;2023-07-30T15:24:08;1.87;;;1.60;;